Terminal Aerodrome Forecast
Issued by NWS Grand Junction, CO

Home | Current Version | Previous Version | Text Only | Print | Product List | Glossary On
Versions: 1 2 3 4 5 6 7 8 9 10 11 12 13 14 15 16 17
000
FTUS45 KGJT 152341
TAFGJT
TAF
KGJT 152341Z 1600/1624 32006KT P6SM BKN250
     FM160200 07005KT P6SM BKN200
     FM160700 22007KT P6SM FEW150 BKN200
     FM161400 17008KT P6SM SCT060 BKN100
     FM161800 30008KT P6SM SCT060 BKN100=

USA.gov is the U.S. government's official web portal to all federal, state and local government web resources and services.